Time;durP1;ratioP1;P1;durP2;ratioP2;P2;SDS_P1;SDS_P2;PMS_P1;PMS_P2;Temp;Humidity;BMP_temperature;BMP_pressure;BME280_temperature;BME280_humidity;BME280_pressure;Samples;Min_cycle;Max_cycle;Signal;HPM_P1;HPM_P2
2022/02/01 00:02:54;;;;;;;100.65;41.68;;;;;;;1.47;72.10;99547.94;2082049;84;31202;-62
2022/02/01 00:06:05;;;;;;;108.75;38.48;;;;;;;1.49;72.14;99554.05;2105578;83;34495;-65
2022/02/01 00:09:11;;;;;;;95.32;40.38;;;;;;;1.55;72.24;99558.31;2080168;83;29769;-65
2022/02/01 00:12:24;;;;;;;92.37;37.93;;;;;;;1.58;72.27;99566.59;2072289;84;27833;-64
2022/02/01 00:18:38;;;;;;;82.45;33.55;;;;;;;1.62;72.23;99573.54;2138559;83;31925;-64
2022/02/01 00:35:20;;;;;;;45.90;19.98;;;;;;;1.56;71.87;99604.92;2178786;81;31119;-64
2022/02/01 00:38:02;;;;;;;43.25;20.30;;;;;;;1.56;71.91;99614.63;2168854;80;32472;-63
2022/02/01 00:41:04;;;;;;;45.05;19.55;;;;;;;1.56;71.87;99612.84;2159889;81;29490;-64
2022/02/01 00:44:05;;;;;;;42.78;19.30;;;;;;;1.56;71.85;99618.13;2170167;81;27621;-64
2022/02/01 00:47:07;;;;;;;41.13;18.27;;;;;;;1.57;71.87;99622.50;2177209;81;28654;-63
2022/02/01 00:50:15;;;;;;;51.02;21.87;;;;;;;1.59;71.90;99627.30;2178983;81;31167;-64
2022/02/01 00:53:21;;;;;;;43.33;18.82;;;;;;;1.60;71.92;99625.50;2179162;81;32988;-63
2022/02/01 00:56:21;;;;;;;37.28;20.60;;;;;;;1.62;71.90;99634.27;2178775;80;29389;-63
2022/02/01 00:59:23;;;;;;;55.08;20.82;;;;;;;1.62;71.93;99628.55;2159836;82;27625;-64
2022/02/01 01:02:25;;;;;;;44.15;20.50;;;;;;;1.65;71.97;99632.88;2159855;81;29476;-64
2022/02/01 01:05:26;;;;;;;48.75;21.93;;;;;;;1.69;72.00;99634.98;2159815;81;31849;-64
2022/02/01 01:08:28;;;;;;;53.65;21.85;;;;;;;1.73;72.01;99637.53;2156107;81;32957;-64
2022/02/01 01:11:30;;;;;;;45.38;21.50;;;;;;;1.76;71.99;99646.67;2149263;81;29336;-65
2022/02/01 01:44:22;;;;;;;67.05;27.65;;;;;;;1.98;72.14;99656.73;2163864;82;29366;-74
2022/02/01 01:54:05;;;;;;;77.42;28.00;;;;;;;1.94;72.02;99659.91;2127440;82;31038;-77
2022/02/01 01:57:06;;;;;;;64.27;26.10;;;;;;;1.90;72.02;99663.98;2128344;82;33012;-79
2022/02/01 02:00:28;;;;;;;59.23;25.92;;;;;;;1.85;71.91;99671.14;2106346;83;27664;-68
2022/02/01 02:03:16;;;;;;;56.80;26.42;;;;;;;1.81;71.90;99683.09;2124962;83;27685;-71
2022/02/01 02:06:18;;;;;;;59.33;26.20;;;;;;;1.77;71.96;99693.30;2154863;82;29501;-78
2022/02/01 02:09:20;;;;;;;55.52;24.23;;;;;;;1.73;72.02;99687.70;2170874;82;31012;-76
2022/02/01 02:12:49;;;;;;;57.40;23.75;;;;;;;1.70;72.08;99693.05;2171298;82;32418;-76
2022/02/01 02:15:42;;;;;;;56.42;22.67;;;;;;;1.67;72.13;99688.69;2169896;80;29480;-76
2022/02/01 02:18:37;;;;;;;51.65;21.82;;;;;;;1.65;72.21;99687.88;2170547;81;27708;-72
2022/02/01 02:21:53;;;;;;;50.55;21.37;;;;;;;1.65;72.24;99687.88;2105695;83;27766;-77
2022/02/01 02:24:55;;;;;;;40.40;19.27;;;;;;;1.65;72.22;99689.64;2126120;83;32925;-69
2022/02/01 02:27:58;;;;;;;48.58;18.90;;;;;;;1.65;72.22;99680.40;2125020;82;33774;-70
2022/02/01 02:31:01;;;;;;;47.90;16.80;;;;;;;1.63;72.23;99689.69;2116094;83;29309;-73
2022/02/01 02:34:09;;;;;;;47.17;18.42;;;;;;;1.61;72.25;99692.81;2055359;86;27744;-68
2022/02/01 02:37:15;;;;;;;38.83;16.73;;;;;;;1.63;72.34;99694.08;2124427;83;28650;-79
2022/02/01 02:40:32;;;;;;;45.92;16.35;;;;;;;1.63;72.30;99691.44;2129199;82;31077;-79
2022/02/01 02:46:41;;;;;;;38.15;15.08;;;;;;;1.62;72.37;99695.87;2160799;82;29405;-81
2022/02/01 02:49:42;;;;;;;38.23;15.00;;;;;;;1.62;72.38;99689.70;2127364;82;27686;-80
2022/02/01 02:52:44;;;;;;;44.85;15.05;;;;;;;1.64;72.35;99685.26;2124420;83;28609;-83
2022/02/01 02:55:46;;;;;;;31.68;14.87;;;;;;;1.65;72.34;99682.60;2127093;83;31863;-78
2022/02/01 02:58:53;;;;;;;41.50;15.15;;;;;;;1.64;72.33;99678.22;2123305;83;33056;-72
2022/02/01 03:01:56;;;;;;;37.60;14.53;;;;;;;1.64;72.31;99683.50;2088825;85;30207;-78
2022/02/01 03:04:58;;;;;;;40.65;15.58;;;;;;;1.64;72.30;99687.90;2173723;81;27746;-79
2022/02/01 03:08:00;;;;;;;46.02;14.65;;;;;;;1.62;72.38;99697.19;2148769;82;28471;-77
2022/02/01 03:11:13;;;;;;;44.45;15.75;;;;;;;1.63;72.42;99694.97;2124427;82;31089;-72
2022/02/01 03:14:23;;;;;;;42.08;15.85;;;;;;;1.61;72.42;99683.57;2126792;83;33839;-79
2022/02/01 03:19:46;;;;;;;47.00;15.20;;;;;;;1.61;72.48;99684.89;2106147;83;29330;-74
2022/02/01 03:20:25;;;;;;;41.60;15.32;;;;;;;1.61;72.47;99688.84;2099147;84;27736;-76
2022/02/01 03:23:27;;;;;;;48.52;15.45;;;;;;;1.61;72.54;99691.48;2102010;84;29481;-75
2022/02/01 03:26:29;;;;;;;40.03;14.95;;;;;;;1.64;72.62;99698.45;2161450;82;30989;-78
2022/02/01 03:29:31;;;;;;;42.58;16.40;;;;;;;1.64;72.59;99705.95;2161678;82;33563;-82
2022/02/01 03:32:33;;;;;;;39.23;16.35;;;;;;;1.67;72.70;99707.64;2158672;81;30246;-78
2022/02/01 03:35:34;;;;;;;40.45;16.95;;;;;;;1.67;72.66;99702.36;2161460;82;27609;-69
2022/02/01 03:38:36;;;;;;;50.83;18.87;;;;;;;1.69;72.66;99708.91;2161439;82;29586;-73
2022/02/01 03:41:38;;;;;;;54.53;17.82;;;;;;;1.69;72.75;99707.16;2101799;84;31112;-79
2022/02/01 03:44:41;;;;;;;47.67;18.75;;;;;;;1.70;72.72;99707.58;2157450;82;32652;-78
2022/02/01 03:47:43;;;;;;;64.97;18.75;;;;;;;1.72;72.72;99707.53;2161373;81;29340;-81
2022/02/01 03:50:45;;;;;;;70.52;20.45;;;;;;;1.73;72.79;99705.30;2161643;82;27508;-73
2022/02/01 03:53:46;;;;;;;55.85;19.90;;;;;;;1.71;72.75;99707.11;2161312;82;28670;-71
2022/02/01 03:56:48;;;;;;;48.80;19.23;;;;;;;1.73;72.74;99718.51;2161406;82;31842;-77
2022/02/01 03:59:50;;;;;;;60.33;18.92;;;;;;;1.74;72.80;99717.61;2160905;82;34007;-70
2022/02/01 04:02:52;;;;;;;56.53;19.45;;;;;;;1.71;72.77;99715.03;2161038;82;29377;-75
2022/02/01 04:05:56;;;;;;;51.05;19.87;;;;;;;1.70;72.76;99715.93;2133629;82;28248;-81
2022/02/01 04:08:57;;;;;;;46.15;17.73;;;;;;;1.69;72.70;99718.16;2161423;81;28654;-69
2022/02/01 04:12:02;;;;;;;55.20;19.48;;;;;;;1.66;72.72;99719.95;2158981;82;31017;-71
2022/02/01 04:15:07;;;;;;;50.10;19.20;;;;;;;1.63;72.67;99720.48;2126804;81;32935;-79
2022/02/01 04:18:09;;;;;;;30.17;13.78;;;;;;;1.60;72.67;99730.67;2101756;83;29947;-80
2022/02/01 04:21:11;;;;;;;50.03;18.98;;;;;;;1.56;72.65;99730.78;2101310;84;28227;-80
2022/02/01 04:24:13;;;;;;;53.50;18.48;;;;;;;1.51;72.67;99735.70;2161870;82;28518;-74
2022/02/01 04:27:30;;;;;;;49.67;19.32;;;;;;;1.47;72.66;99739.77;2161775;81;31193;-78
2022/02/01 04:30:28;;;;;;;54.88;20.25;;;;;;;1.44;72.73;99739.36;2160976;82;33752;-76
2022/02/01 04:33:30;;;;;;;50.63;20.32;;;;;;;1.41;72.75;99743.38;2158843;82;29486;-73
2022/02/01 04:36:32;;;;;;;55.17;20.85;;;;;;;1.39;72.81;99741.25;2160258;81;27807;-76
2022/02/01 04:39:34;;;;;;;57.60;20.50;;;;;;;1.36;72.86;99740.84;2151554;81;28705;-78
2022/02/01 04:42:37;;;;;;;48.25;18.15;;;;;;;1.34;72.89;99741.78;2161360;82;31998;-72
2022/02/01 04:45:40;;;;;;;50.60;20.10;;;;;;;1.33;72.90;99747.96;2161607;82;33850;-74
2022/02/01 04:48:42;;;;;;;48.20;18.05;;;;;;;1.29;72.92;99752.44;2159072;81;29522;-80
2022/02/01 04:51:45;;;;;;;41.90;16.77;;;;;;;1.29;72.99;99755.52;2161837;82;27700;-80
2022/02/01 04:54:47;;;;;;;53.45;17.77;;;;;;;1.28;73.01;99759.94;2161574;82;29804;-73
2022/02/01 05:00:59;;;;;;;38.15;15.58;;;;;;;1.27;73.02;99775.78;2158206;82;28044;-75
2022/02/01 05:04:00;;;;;;;48.80;17.32;;;;;;;1.25;73.00;99772.30;2161437;82;29535;-73
2022/02/01 05:07:01;;;;;;;46.45;17.98;;;;;;;1.25;73.00;99773.19;2161791;82;27830;-68
2022/02/01 05:10:05;;;;;;;45.10;16.70;;;;;;;1.25;73.01;99773.19;2143643;82;29950;-78
2022/02/01 05:16:45;;;;;;;50.33;16.97;;;;;;;1.24;72.99;99778.50;2161528;82;32955;-78
2022/02/01 05:19:55;;;;;;;42.73;17.92;;;;;;;1.22;73.03;99771.92;2158556;82;29701;-69
2022/02/01 05:22:48;;;;;;;46.65;17.55;;;;;;;1.20;73.04;99769.77;2160996;82;27677;-75
2022/02/01 05:25:51;;;;;;;43.23;17.10;;;;;;;1.20;73.10;99769.77;2161804;81;29469;-72
2022/02/01 05:28:53;;;;;;;39.63;14.63;;;;;;;1.20;73.12;99770.64;2161813;82;31197;-70
2022/02/01 05:31:57;;;;;;;37.95;14.87;;;;;;;1.20;73.15;99776.36;2158906;81;34043;-74
2022/02/01 05:35:01;;;;;;;39.15;15.18;;;;;;;1.20;73.16;99768.01;2162031;82;29305;-70
2022/02/01 05:38:03;;;;;;;52.53;16.52;;;;;;;1.23;73.22;99763.11;2161862;81;27643;-76
2022/02/01 05:41:06;;;;;;;46.88;15.65;;;;;;;1.24;73.21;99764.00;2158893;82;29442;-74
2022/02/01 05:44:08;;;;;;;49.80;15.93;;;;;;;1.26;73.26;99759.53;2161587;81;30998;-73
2022/02/01 05:47:10;;;;;;;50.92;17.60;;;;;;;1.27;73.34;99750.71;2161707;82;34352;-70
2022/02/01 05:50:11;;;;;;;40.67;16.85;;;;;;;1.30;73.34;99748.91;2160594;81;29353;-76
2022/02/01 05:53:13;;;;;;;49.63;18.05;;;;;;;1.31;73.43;99750.64;2161485;82;27703;-73
2022/02/01 05:56:17;;;;;;;55.12;21.02;;;;;;;1.33;73.46;99752.77;2105120;84;27697;-72
2022/02/01 05:59:18;;;;;;;57.10;21.42;;;;;;;1.34;73.54;99761.58;2076750;85;31866;-71
2022/02/01 06:02:20;;;;;;;49.58;19.77;;;;;;;1.35;73.64;99765.49;2036439;85;32944;-76
2022/02/01 06:05:22;;;;;;;45.15;19.37;;;;;;;1.35;73.69;99771.23;2038248;85;29431;-74
2022/02/01 06:08:26;;;;;;;57.40;19.80;;;;;;;1.35;73.76;99769.91;2036249;86;27628;-67
2022/02/01 06:11:29;;;;;;;50.38;18.82;;;;;;;1.34;73.87;99763.75;2048343;85;28740;-74
2022/02/01 06:14:30;;;;;;;56.42;17.87;;;;;;;1.35;73.90;99776.52;2073949;85;31032;-71
2022/02/01 06:17:32;;;;;;;48.13;18.42;;;;;;;1.34;73.90;99775.62;2107565;82;32399;-74
2022/02/01 06:20:34;;;;;;;45.50;16.10;;;;;;;1.35;73.93;99785.75;2139788;83;29416;-76
2022/02/01 06:23:36;;;;;;;47.95;17.42;;;;;;;1.34;74.01;99780.91;2142203;82;27222;-79
2022/02/01 06:26:39;;;;;;;54.40;17.70;;;;;;;1.35;74.06;99791.03;2079841;82;27722;-77
2022/02/01 06:29:41;;;;;;;59.23;19.00;;;;;;;1.36;74.09;99792.77;2037161;87;31110;-78
2022/02/01 06:32:43;;;;;;;47.83;19.15;;;;;;;1.36;74.16;99800.69;2104942;84;32967;-76
2022/02/01 06:35:45;;;;;;;51.02;20.45;;;;;;;1.36;74.22;99810.77;2134095;82;29420;-78
2022/02/01 06:38:47;;;;;;;53.55;17.07;;;;;;;1.39;74.29;99808.98;2170402;81;27718;-76
2022/02/01 06:41:49;;;;;;;49.20;17.35;;;;;;;1.41;74.27;99819.06;2195518;81;29469;-77
2022/02/01 06:44:50;;;;;;;39.40;16.32;;;;;;;1.41;74.32;99822.55;2198166;81;31868;-76
2022/02/01 06:47:54;;;;;;;38.95;16.30;;;;;;;1.46;74.33;99829.09;2163701;81;32965;-79
2022/02/01 06:50:57;;;;;;;43.95;15.28;;;;;;;1.47;74.34;99838.75;2149190;82;27681;-68
2022/02/01 06:54:02;;;;;;;46.02;16.02;;;;;;;1.48;74.35;99843.13;2149785;82;27530;-70
2022/02/01 06:57:04;;;;;;;37.30;15.03;;;;;;;1.49;74.36;99846.19;2188607;81;28660;-74
2022/02/01 07:00:09;;;;;;;30.43;12.50;;;;;;;1.49;74.23;99840.45;2197074;80;31025;-78
2022/02/01 07:03:20;;;;;;;33.30;12.05;;;;;;;1.51;74.32;99836.44;2170451;81;33069;-71
2022/02/01 07:06:22;;;;;;;39.65;12.18;;;;;;;1.55;74.39;99835.95;2136741;83;30199;-71
2022/02/01 07:09:28;;;;;;;23.73;10.65;;;;;;;1.57;74.22;99840.29;2083576;82;28141;-74
2022/02/01 07:12:29;;;;;;;37.67;11.10;;;;;;;1.58;74.28;99831.91;2037187;85;29754;-75
2022/02/01 07:15:31;;;;;;;34.05;12.90;;;;;;;1.60;74.24;99834.06;2047517;84;31040;-74
2022/02/01 07:18:32;;;;;;;29.85;12.00;;;;;;;1.60;74.17;99827.03;2184225;80;33103;-71
2022/02/01 07:21:35;;;;;;;31.75;11.95;;;;;;;1.62;74.24;99826.98;2164015;82;30190;-76
2022/02/01 07:24:48;;;;;;;32.45;12.82;;;;;;;1.64;74.22;99832.67;2164062;82;27576;-77
2022/02/01 07:27:42;;;;;;;35.80;15.03;;;;;;;1.69;74.30;99831.69;2165885;80;28924;-69
2022/02/01 07:30:45;;;;;;;36.48;14.68;;;;;;;1.72;74.22;99815.79;2202235;80;31033;-74
2022/02/01 07:33:47;;;;;;;35.50;15.70;;;;;;;1.73;74.14;99836.02;2202141;80;33122;-74
2022/02/01 07:36:49;;;;;;;38.35;14.18;;;;;;;1.71;74.12;99836.49;2202082;80;28754;-74
2022/02/01 07:39:50;;;;;;;33.95;14.58;;;;;;;1.73;74.21;99838.22;2159436;80;27748;-75
2022/02/01 07:42:52;;;;;;;30.70;12.78;;;;;;;1.76;74.22;99845.20;2052106;84;28811;-74
2022/02/01 07:45:54;;;;;;;39.63;14.63;;;;;;;1.78;74.18;99832.84;2045661;87;31753;-75
2022/02/01 07:48:56;;;;;;;39.42;14.47;;;;;;;1.79;74.26;99830.15;2122575;83;32963;-75
2022/02/01 07:51:58;;;;;;;39.50;14.98;;;;;;;1.81;74.34;99823.06;2143282;83;30143;-74
2022/02/01 07:55:01;;;;;;;37.65;15.32;;;;;;;1.85;74.31;99829.14;2140473;82;27737;-75
2022/02/01 07:58:03;;;;;;;43.05;16.35;;;;;;;1.87;74.27;99823.84;2107194;84;29356;-75
2022/02/01 08:01:04;;;;;;;41.10;16.50;;;;;;;1.88;74.29;99817.20;2153866;82;31042;-78
2022/02/01 08:04:06;;;;;;;37.42;16.07;;;;;;;1.91;74.44;99813.17;2112487;82;33151;-74
2022/02/01 08:07:08;;;;;;;37.88;15.03;;;;;;;1.94;74.44;99825.00;2130993;82;30118;-67
2022/02/01 08:10:13;;;;;;;43.13;14.90;;;;;;;1.96;74.41;99815.27;2107014;84;27643;-66
2022/02/01 08:16:37;;;;;;;32.67;12.63;;;;;;;2.00;74.37;99817.39;2074403;84;31322;-75
2022/02/01 08:19:29;;;;;;;31.52;12.93;;;;;;;1.99;74.36;99814.33;2049335;86;32994;-70
2022/02/01 08:22:38;;;;;;;48.50;14.23;;;;;;;2.00;74.38;99804.61;2126369;83;30153;-72
2022/02/01 08:25:36;;;;;;;36.98;12.78;;;;;;;1.99;74.40;99803.76;2126414;83;27839;-73
2022/02/01 08:28:38;;;;;;;36.75;12.78;;;;;;;1.99;74.40;99795.83;2128087;83;28818;-74
2022/02/01 08:31:40;;;;;;;38.67;11.78;;;;;;;1.99;74.50;99803.76;2128843;83;31182;-71
2022/02/01 08:34:43;;;;;;;40.92;12.45;;;;;;;1.98;74.51;99800.70;2128403;83;32990;-73
2022/02/01 08:37:45;;;;;;;34.30;11.85;;;;;;;1.94;74.48;99798.59;2127241;83;29496;-69
2022/02/01 08:40:49;;;;;;;36.58;12.88;;;;;;;1.93;74.57;99799.48;2125726;83;28503;-72
2022/02/01 08:43:53;;;;;;;37.13;13.22;;;;;;;1.93;74.52;99797.28;2127748;83;28733;-72
2022/02/01 08:46:56;;;;;;;41.23;11.15;;;;;;;1.96;74.73;99795.90;2128540;83;31835;-74
2022/02/01 08:50:00;;;;;;;40.83;11.00;;;;;;;2.05;74.65;99789.53;2128769;83;33753;-73
2022/02/01 08:53:16;;;;;;;30.10;10.48;;;;;;;2.16;74.62;99786.18;2153362;81;30146;-79
2022/02/01 08:59:28;;;;;;;27.77;8.98;;;;;;;2.54;74.53;99778.25;2083354;85;29610;-73
2022/02/01 09:02:30;;;;;;;26.52;8.68;;;;;;;2.69;74.33;99773.02;2091788;83;31138;-71
2022/02/01 09:05:33;;;;;;;25.37;8.55;;;;;;;2.80;74.28;99770.09;2082387;83;33825;-75
2022/02/01 09:08:35;;;;;;;28.10;9.28;;;;;;;2.91;74.15;99766.70;2084078;85;30002;-73
2022/02/01 09:11:36;;;;;;;27.50;9.98;;;;;;;3.00;73.98;99766.47;2092637;83;27770;-73
2022/02/01 09:14:39;;;;;;;23.57;10.30;;;;;;;3.11;73.92;99769.27;2082431;85;29673;-71
2022/02/01 09:17:42;;;;;;;28.57;9.88;;;;;;;3.18;73.75;99760.25;2080004;85;31243;-71
2022/02/01 09:20:45;;;;;;;37.88;14.63;;;;;;;3.27;73.53;99761.78;2066831;84;32981;-71
2022/02/01 09:23:47;;;;;;;30.80;10.32;;;;;;;3.34;73.39;99764.64;2065819;84;29430;-70
2022/02/01 09:26:50;;;;;;;27.77;9.40;;;;;;;3.40;73.21;99757.86;2063232;84;27766;-70
2022/02/01 09:29:53;;;;;;;40.35;16.05;;;;;;;3.45;72.95;99757.28;2073658;84;28838;-70
2022/02/01 09:32:55;;;;;;;113.90;64.87;;;;;;;3.47;72.96;99746.19;2068574;84;31062;-69
2022/02/01 09:35:56;;;;;;;29.27;11.83;;;;;;;3.50;72.83;99742.10;2115201;80;33583;-70
2022/02/01 09:38:59;;;;;;;97.70;35.40;;;;;;;3.51;72.64;99750.94;2182766;80;29287;-70
2022/02/01 09:42:01;;;;;;;38.23;16.65;;;;;;;3.52;72.67;99751.78;2185887;80;27524;-70
2022/02/01 09:45:10;;;;;;;38.58;13.55;;;;;;;3.58;72.64;99748.97;2183700;80;28875;-71
2022/02/01 09:48:12;;;;;;;23.92;9.23;;;;;;;3.59;72.47;99748.91;2178170;80;31698;-72
2022/02/01 09:51:14;;;;;;;33.60;13.85;;;;;;;3.64;72.32;99741.70;2178617;81;33738;-73
2022/02/01 09:54:21;;;;;;;25.72;11.97;;;;;;;3.71;72.16;99741.53;2183905;81;29358;-72
2022/02/01 09:57:22;;;;;;;21.82;9.83;;;;;;;3.75;72.13;99736.52;2185038;80;28276;-70
2022/02/01 10:00:34;;;;;;;28.02;12.07;;;;;;;3.77;71.89;99730.72;2185874;80;28700;-70
2022/02/01 10:03:37;;;;;;;17.32;9.50;;;;;;;3.83;71.97;99719.95;2185203;80;31027;-71
2022/02/01 10:06:40;;;;;;;27.80;10.60;;;;;;;3.90;71.76;99718.81;2184162;80;33772;-69
2022/02/01 10:09:53;;;;;;;24.30;11.10;;;;;;;3.99;71.72;99718.13;2175553;80;29514;-72
2022/02/01 10:13:02;;;;;;;23.45;11.05;;;;;;;4.00;71.36;99711.92;2131793;81;28277;-71
2022/02/01 10:19:11;;;;;;;28.87;12.30;;;;;;;4.06;71.36;99708.61;2162140;80;31047;-76
2022/02/01 10:22:13;;;;;;;22.82;11.03;;;;;;;4.08;71.17;99705.45;2155522;82;33007;-73
2022/02/01 10:25:30;;;;;;;39.20;16.23;;;;;;;4.05;71.13;99706.88;2149085;81;30209;-80
2022/02/01 10:29:16;;;;;;;22.20;11.15;;;;;;;4.00;71.10;99711.92;2115969;82;27606;-78
2022/02/01 10:32:18;;;;;;;24.50;10.68;;;;;;;3.90;71.04;99704.72;2120268;82;28655;-73
2022/02/01 10:35:27;;;;;;;23.80;10.53;;;;;;;3.82;71.07;99702.31;2111211;82;31070;-74
2022/02/01 10:38:32;;;;;;;19.05;11.53;;;;;;;3.76;71.29;99688.81;2155407;82;32960;-77
2022/02/01 10:41:34;;;;;;;23.92;12.45;;;;;;;3.76;71.33;99682.63;2114474;82;30122;-78
2022/02/01 10:44:49;;;;;;;21.75;11.28;;;;;;;3.71;71.48;99674.83;2130297;82;27695;-79
2022/02/01 10:47:51;;;;;;;25.70;11.55;;;;;;;3.69;71.58;99669.18;2084476;84;29577;-73
2022/02/01 10:51:21;;;;;;;20.32;12.03;;;;;;;3.71;71.74;99670.00;2166706;80;31847;-74
2022/02/01 10:54:23;;;;;;;19.85;10.60;;;;;;;3.72;71.80;99677.89;2169786;80;33175;-73
2022/02/01 10:57:25;;;;;;;28.23;10.90;;;;;;;3.67;71.58;99665.23;2178160;81;30161;-75
2022/02/01 11:00:27;;;;;;;29.50;11.20;;;;;;;3.62;71.54;99648.17;2178728;80;27699;-72
2022/02/01 11:03:30;;;;;;;16.85;9.95;;;;;;;3.64;71.79;99649.00;2178768;80;28626;-70
2022/02/01 11:06:35;;;;;;;20.57;11.68;;;;;;;3.69;71.78;99646.66;2179218;80;31017;-70
2022/02/01 11:09:36;;;;;;;18.70;10.05;;;;;;;3.73;71.78;99633.70;2179244;80;32953;-70
2022/02/01 11:12:40;;;;;;;19.60;9.40;;;;;;;3.76;71.86;99622.58;2168654;80;30059;-72
2022/02/01 11:16:01;;;;;;;16.15;9.83;;;;;;;3.79;71.62;99626.45;2176967;80;27685;-71
2022/02/01 11:19:08;;;;;;;14.73;9.70;;;;;;;3.85;71.78;99622.73;2170294;80;28633;-68
2022/02/01 11:22:19;;;;;;;15.35;9.88;;;;;;;3.85;71.75;99620.09;2162312;80;31059;-70
2022/02/01 11:25:24;;;;;;;17.42;9.33;;;;;;;3.84;71.65;99618.79;2157984;80;32966;-66
2022/02/01 11:28:39;;;;;;;13.03;8.93;;;;;;;3.83;71.85;99613.08;2134078;82;30257;-67
2022/02/01 11:31:48;;;;;;;15.65;8.53;;;;;;;3.82;71.51;99614.88;2160386;82;27919;-71
2022/02/01 11:34:56;;;;;;;14.58;7.97;;;;;;;3.78;71.37;99617.22;2157636;80;28733;-73
2022/02/01 11:38:09;;;;;;;24.65;10.35;;;;;;;3.82;71.39;99619.30;2160036;82;31216;-72
2022/02/01 11:41:11;;;;;;;17.95;11.08;;;;;;;3.87;71.12;99615.61;2160104;82;33879;-76
2022/02/01 11:44:29;;;;;;;14.10;9.10;;;;;;;3.89;71.14;99602.30;2157978;82;30296;-68
2022/02/01 11:47:39;;;;;;;16.42;9.50;;;;;;;3.99;71.25;99605.03;2161077;82;27646;-68
2022/02/01 11:50:54;;;;;;;16.50;8.38;;;;;;;4.13;71.11;99603.72;2162828;80;28633;-65
2022/02/01 11:53:59;;;;;;;15.35;7.20;;;;;;;4.20;70.89;99603.45;2155162;80;32526;-68
2022/02/01 11:57:21;;;;;;;15.00;6.58;;;;;;;4.21;70.54;99601.21;2162430;80;33734;-71
2022/02/01 12:00:26;;;;;;;16.10;7.25;;;;;;;4.20;70.58;99598.15;2161421;80;29366;-69
2022/02/01 12:03:38;;;;;;;14.38;6.95;;;;;;;4.19;70.30;99595.09;2160141;80;27631;-70
2022/02/01 12:06:46;;;;;;;16.93;7.03;;;;;;;4.18;70.33;99588.50;2157260;80;29464;-69
2022/02/01 12:09:48;;;;;;;17.55;7.90;;;;;;;4.17;70.43;99582.34;2153947;80;31222;-73
2022/02/01 12:12:50;;;;;;;9.70;5.42;;;;;;;4.20;70.22;99574.73;2161530;80;33915;-68
2022/02/01 12:15:59;;;;;;;16.10;6.08;;;;;;;4.18;70.06;99576.13;2114779;82;29314;-69
2022/02/01 12:19:08;;;;;;;9.95;4.87;;;;;;;4.14;69.80;99565.22;2106966;83;27731;-73
2022/02/01 12:22:49;;;;;;;12.90;5.62;;;;;;;4.16;69.72;99566.47;2076595;84;28686;-67
2022/02/01 12:25:52;;;;;;;14.00;5.25;;;;;;;4.25;69.93;99560.87;2030265;86;31325;-76
2022/02/01 12:28:57;;;;;;;21.07;5.35;;;;;;;4.31;69.43;99557.13;2057252;86;33859;-78
2022/02/01 12:32:09;;;;;;;20.85;5.65;;;;;;;4.34;69.59;99558.34;2040594;86;27869;-77
2022/02/01 12:35:10;;;;;;;21.17;11.68;;;;;;;4.38;69.44;99554.67;2040791;86;28377;-68
2022/02/01 12:38:20;;;;;;;21.10;6.20;;;;;;;4.41;69.61;99556.74;2064346;85;29462;-74
2022/02/01 12:41:20;;;;;;;21.75;6.00;;;;;;;4.44;69.28;99547.80;2110193;83;31029;-80
2022/02/01 12:47:25;;;;;;;14.95;6.22;;;;;;;4.43;69.14;99542.09;2109976;84;29336;-68
2022/02/01 12:50:27;;;;;;;13.90;6.22;;;;;;;4.46;69.29;99534.02;2111579;83;27706;-68
2022/02/01 12:53:48;;;;;;;22.67;7.37;;;;;;;4.44;68.95;99536.34;2109973;84;28691;-70
2022/02/01 12:56:51;;;;;;;17.45;5.83;;;;;;;4.45;69.05;99532.77;2125719;83;31973;-77
2022/02/01 13:00:16;;;;;;;18.92;6.20;;;;;;;4.46;68.98;99530.52;2148249;82;32989;-75
2022/02/01 13:03:18;;;;;;;15.68;6.55;;;;;;;4.43;68.88;99531.48;2120626;83;37258;-74
2022/02/01 13:06:21;;;;;;;18.50;6.65;;;;;;;4.43;69.04;99526.17;2163828;81;28391;-69
2022/02/01 13:15:49;;;;;;;16.85;5.78;;;;;;;4.40;69.10;99517.88;2187444;81;33078;-70
2022/02/01 13:21:51;;;;;;;22.45;7.50;;;;;;;4.29;69.10;99513.44;2101425;83;27796;-67
2022/02/01 13:25:08;;;;;;;17.12;6.60;;;;;;;4.24;69.38;99516.23;2129174;82;29525;-69
2022/02/01 13:28:14;;;;;;;19.25;6.17;;;;;;;4.22;69.39;99506.14;2147053;81;31183;-73
2022/02/01 13:31:19;;;;;;;27.58;7.70;;;;;;;4.22;69.55;99499.99;2147252;82;32966;-74
2022/02/01 13:34:30;;;;;;;20.97;6.92;;;;;;;4.26;69.45;99489.69;2119266;83;29351;-70
2022/02/01 13:37:33;;;;;;;26.68;7.70;;;;;;;4.26;69.65;99479.08;2127713;81;27732;-69
2022/02/01 13:40:36;;;;;;;23.65;7.15;;;;;;;4.29;69.64;99471.47;2146371;82;28622;-78
2022/02/01 13:43:45;;;;;;;20.17;5.90;;;;;;;4.34;69.91;99467.72;2134146;83;31138;-76
2022/02/01 13:46:59;;;;;;;18.77;6.42;;;;;;;4.41;69.96;99453.31;2152637;80;33096;-72
2022/02/01 13:50:04;;;;;;;22.32;7.55;;;;;;;4.43;69.98;99450.59;2170039;80;29506;-72
2022/02/01 13:53:08;;;;;;;20.68;6.75;;;;;;;4.45;69.78;99443.92;2172388;82;27655;-71
2022/02/01 13:56:10;;;;;;;19.62;5.97;;;;;;;4.40;69.67;99438.33;2174632;80;28646;-71
2022/02/01 13:59:18;;;;;;;25.35;9.13;;;;;;;4.39;69.94;99427.31;2172624;81;31744;-72
2022/02/01 14:02:29;;;;;;;30.68;11.33;;;;;;;4.42;69.92;99413.06;2161408;81;33159;-73
2022/02/01 14:05:31;;;;;;;27.40;10.10;;;;;;;4.43;69.98;99408.16;2137260;81;29400;-72
2022/02/01 14:08:39;;;;;;;37.60;13.40;;;;;;;4.45;70.02;99406.32;2196400;81;28400;-70
2022/02/01 14:25:33;;;;;;;26.27;11.68;;;;;;;4.29;70.18;99382.20;2155073;82;27773;-78
2022/02/01 14:34:19;;;;;;;69.17;31.65;;;;;;;4.18;70.28;99365.38;2119058;84;32991;-76
2022/02/01 14:37:29;;;;;;;48.85;26.10;;;;;;;4.20;70.66;99363.53;2155579;81;27718;-74
2022/02/01 14:47:11;;;;;;;29.75;12.40;;;;;;;4.06;70.55;99349.48;2174299;81;31053;-77
2022/02/01 14:50:17;;;;;;;27.58;13.10;;;;;;;4.01;70.58;99347.45;2155699;82;32444;-76
2022/02/01 14:53:19;;;;;;;24.23;12.37;;;;;;;3.99;70.74;99334.72;2158111;81;30050;-75
2022/02/01 14:56:25;;;;;;;27.42;13.68;;;;;;;3.97;70.68;99321.14;2154836;82;27746;-74
2022/02/01 15:06:52;;;;;;;27.73;9.83;;;;;;;3.94;70.71;99303.11;2144276;83;33837;-66
2022/02/01 15:12:43;;;;;;;18.67;8.28;;;;;;;3.90;70.47;99285.59;2185835;80;27769;-70
2022/02/01 15:15:42;;;;;;;18.12;6.10;;;;;;;3.84;70.47;99272.60;2217559;80;28895;-71
2022/02/01 15:18:46;;;;;;;18.80;7.03;;;;;;;3.77;70.28;99258.73;2210149;80;31065;-66
2022/02/01 15:21:48;;;;;;;23.05;13.40;;;;;;;3.75;70.31;99246.00;2212773;80;33058;-71
2022/02/01 15:24:50;;;;;;;25.27;10.68;;;;;;;3.72;70.27;99242.62;2216749;80;29316;-70
2022/02/01 15:27:52;;;;;;;19.80;8.05;;;;;;;3.69;70.28;99250.67;2184677;80;27756;-76
2022/02/01 15:30:54;;;;;;;23.10;8.55;;;;;;;3.65;70.32;99232.69;2169617;80;28652;-75
2022/02/01 15:33:57;;;;;;;26.80;10.65;;;;;;;3.64;70.36;99213.30;2181705;81;31022;-75
2022/02/01 15:37:03;;;;;;;24.77;9.88;;;;;;;3.61;70.25;99197.53;2180618;81;33925;-72
2022/02/01 15:56:51;;;;;;;42.25;17.67;;;;;;;3.54;70.14;99128.53;2144207;83;29511;-77
2022/02/01 15:59:41;;;;;;;39.13;19.92;;;;;;;3.50;70.08;99121.16;2167052;80;27666;-75
2022/02/01 16:02:44;;;;;;;27.43;13.13;;;;;;;3.49;70.16;99108.83;2206793;80;29480;-72
2022/02/01 16:05:45;;;;;;;34.25;15.70;;;;;;;3.46;70.06;99107.66;2196735;80;32251;-75
2022/02/01 16:08:51;;;;;;;31.23;16.85;;;;;;;3.47;70.17;99100.56;2195688;81;32944;-76
2022/02/01 16:11:52;;;;;;;;;;;;;;;3.46;70.30;99089.13;2183701;81;29318;-79
2022/02/01 16:14:55;;;;;;;26.52;9.68;;;;;;;3.47;70.22;99086.88;2151180;82;27785;-78
2022/02/01 16:17:57;;;;;;;34.65;14.40;;;;;;;3.42;70.31;99070.31;2119030;84;29391;-79
2022/02/01 16:21:00;;;;;;;19.12;9.45;;;;;;;3.41;70.36;99069.91;2177833;81;31106;-73
2022/02/01 16:24:02;;;;;;;28.77;10.95;;;;;;;3.39;70.49;99051.05;2196274;81;32995;-80
2022/02/01 16:27:07;;;;;;;24.95;11.30;;;;;;;3.36;70.47;99037.93;2197357;80;29300;-69
2022/02/01 16:30:14;;;;;;;24.18;11.78;;;;;;;3.33;70.42;99029.62;2194839;80;27721;-74
2022/02/01 16:33:17;;;;;;;26.12;12.93;;;;;;;3.30;70.38;99021.84;2158537;81;28714;-78
2022/02/01 16:36:22;;;;;;;23.30;13.43;;;;;;;3.27;70.44;99010.05;2155151;81;31208;-76
2022/02/01 16:39:27;;;;;;;18.52;10.65;;;;;;;3.25;70.40;98992.89;2101363;84;29262;-81